sensor_id;sensor_type;location;lat;lon;timestamp;P1;durP1;ratioP1;P2;durP2;ratioP2
11187;SDS011;5650;52.700;7.306;2024-01-15T00:00:13;16.88;;;2.78;;
11187;SDS011;5650;52.700;7.306;2024-01-15T00:02:41;8.82;;;1.83;;
11187;SDS011;5650;52.700;7.306;2024-01-15T00:05:11;13.40;;;2.92;;
11187;SDS011;5650;52.700;7.306;2024-01-15T00:07:38;11.07;;;2.22;;
11187;SDS011;5650;52.700;7.306;2024-01-15T00:10:05;17.83;;;2.63;;
11187;SDS011;5650;52.700;7.306;2024-01-15T00:12:33;11.57;;;2.65;;
11187;SDS011;5650;52.700;7.306;2024-01-15T00:15:00;13.27;;;1.95;;
11187;SDS011;5650;52.700;7.306;2024-01-15T00:17:29;12.23;;;2.10;;
11187;SDS011;5650;52.700;7.306;2024-01-15T00:19:56;12.65;;;2.85;;
11187;SDS011;5650;52.700;7.306;2024-01-15T00:22:24;18.48;;;2.97;;
11187;SDS011;5650;52.700;7.306;2024-01-15T00:24:52;18.23;;;3.15;;
11187;SDS011;5650;52.700;7.306;2024-01-15T00:27:22;21.42;;;2.95;;
11187;SDS011;5650;52.700;7.306;2024-01-15T00:29:52;16.17;;;2.53;;
11187;SDS011;5650;52.700;7.306;2024-01-15T00:32:22;15.70;;;2.67;;
11187;SDS011;5650;52.700;7.306;2024-01-15T00:34:54;12.85;;;2.03;;
11187;SDS011;5650;52.700;7.306;2024-01-15T00:37:24;16.05;;;3.10;;
11187;SDS011;5650;52.700;7.306;2024-01-15T00:39:54;23.95;;;3.00;;
11187;SDS011;5650;52.700;7.306;2024-01-15T00:42:21;13.52;;;2.50;;
11187;SDS011;5650;52.700;7.306;2024-01-15T00:44:48;16.33;;;2.63;;
11187;SDS011;5650;52.700;7.306;2024-01-15T00:47:15;18.33;;;2.65;;
11187;SDS011;5650;52.700;7.306;2024-01-15T00:49:50;18.67;;;3.00;;
11187;SDS011;5650;52.700;7.306;2024-01-15T00:52:18;13.23;;;2.83;;
11187;SDS011;5650;52.700;7.306;2024-01-15T00:54:44;11.90;;;2.30;;
11187;SDS011;5650;52.700;7.306;2024-01-15T00:57:15;14.25;;;2.47;;
11187;SDS011;5650;52.700;7.306;2024-01-15T00:59:47;10.90;;;2.08;;
11187;SDS011;5650;52.700;7.306;2024-01-15T01:02:14;12.13;;;2.42;;
11187;SDS011;5650;52.700;7.306;2024-01-15T01:04:44;12.57;;;2.65;;
11187;SDS011;5650;52.700;7.306;2024-01-15T01:07:11;17.17;;;2.53;;
11187;SDS011;5650;52.700;7.306;2024-01-15T01:09:40;13.05;;;2.25;;
11187;SDS011;5650;52.700;7.306;2024-01-15T01:12:07;24.70;;;2.78;;
11187;SDS011;5650;52.700;7.306;2024-01-15T01:14:34;20.35;;;2.25;;
11187;SDS011;5650;52.700;7.306;2024-01-15T01:17:01;12.55;;;2.38;;
11187;SDS011;5650;52.700;7.306;2024-01-15T01:19:28;13.75;;;2.28;;
11187;SDS011;5650;52.700;7.306;2024-01-15T01:21:56;15.50;;;2.10;;
11187;SDS011;5650;52.700;7.306;2024-01-15T01:24:25;20.40;;;3.53;;
11187;SDS011;5650;52.700;7.306;2024-01-15T01:26:53;13.43;;;2.78;;
11187;SDS011;5650;52.700;7.306;2024-01-15T01:29:20;11.40;;;2.08;;
11187;SDS011;5650;52.700;7.306;2024-01-15T01:31:51;10.85;;;2.15;;
11187;SDS011;5650;52.700;7.306;2024-01-15T01:34:21;18.90;;;2.45;;
11187;SDS011;5650;52.700;7.306;2024-01-15T01:36:56;13.45;;;2.30;;
11187;SDS011;5650;52.700;7.306;2024-01-15T01:39:29;14.43;;;2.78;;
11187;SDS011;5650;52.700;7.306;2024-01-15T01:41:58;16.25;;;2.38;;
11187;SDS011;5650;52.700;7.306;2024-01-15T01:44:25;13.52;;;1.88;;
11187;SDS011;5650;52.700;7.306;2024-01-15T01:47:01;9.85;;;2.10;;
11187;SDS011;5650;52.700;7.306;2024-01-15T01:49:28;15.65;;;3.15;;
11187;SDS011;5650;52.700;7.306;2024-01-15T01:51:57;11.90;;;2.35;;
11187;SDS011;5650;52.700;7.306;2024-01-15T01:54:26;14.60;;;2.50;;
11187;SDS011;5650;52.700;7.306;2024-01-15T01:57:01;24.80;;;3.00;;
11187;SDS011;5650;52.700;7.306;2024-01-15T01:59:29;14.90;;;2.88;;
11187;SDS011;5650;52.700;7.306;2024-01-15T02:01:58;13.43;;;2.63;;
11187;SDS011;5650;52.700;7.306;2024-01-15T02:04:29;20.27;;;2.22;;
11187;SDS011;5650;52.700;7.306;2024-01-15T02:06:57;12.43;;;2.38;;
11187;SDS011;5650;52.700;7.306;2024-01-15T02:09:25;9.65;;;2.30;;
11187;SDS011;5650;52.700;7.306;2024-01-15T02:11:52;12.15;;;2.47;;
11187;SDS011;5650;52.700;7.306;2024-01-15T02:14:24;10.80;;;2.22;;
11187;SDS011;5650;52.700;7.306;2024-01-15T02:16:52;12.68;;;2.00;;
11187;SDS011;5650;52.700;7.306;2024-01-15T02:19:25;16.02;;;2.30;;
11187;SDS011;5650;52.700;7.306;2024-01-15T02:21:53;11.65;;;2.50;;
11187;SDS011;5650;52.700;7.306;2024-01-15T02:24:24;17.02;;;2.70;;
11187;SDS011;5650;52.700;7.306;2024-01-15T02:26:55;14.93;;;2.78;;
11187;SDS011;5650;52.700;7.306;2024-01-15T02:29:25;12.93;;;2.70;;
11187;SDS011;5650;52.700;7.306;2024-01-15T02:31:55;22.23;;;3.70;;
11187;SDS011;5650;52.700;7.306;2024-01-15T02:34:31;18.00;;;2.92;;
11187;SDS011;5650;52.700;7.306;2024-01-15T02:36:58;19.67;;;2.80;;
11187;SDS011;5650;52.700;7.306;2024-01-15T02:39:27;10.77;;;2.10;;
11187;SDS011;5650;52.700;7.306;2024-01-15T02:41:54;7.78;;;1.65;;
11187;SDS011;5650;52.700;7.306;2024-01-15T02:44:25;13.02;;;1.70;;
11187;SDS011;5650;52.700;7.306;2024-01-15T02:46:56;8.77;;;1.95;;
11187;SDS011;5650;52.700;7.306;2024-01-15T02:49:26;12.52;;;2.08;;
11187;SDS011;5650;52.700;7.306;2024-01-15T02:51:56;6.88;;;1.52;;
11187;SDS011;5650;52.700;7.306;2024-01-15T02:54:24;6.38;;;1.20;;
11187;SDS011;5650;52.700;7.306;2024-01-15T02:56:52;7.30;;;1.10;;
11187;SDS011;5650;52.700;7.306;2024-01-15T02:59:23;10.20;;;1.83;;
11187;SDS011;5650;52.700;7.306;2024-01-15T03:01:50;7.97;;;1.73;;
11187;SDS011;5650;52.700;7.306;2024-01-15T03:04:20;9.35;;;1.95;;
11187;SDS011;5650;52.700;7.306;2024-01-15T03:06:47;8.40;;;1.63;;
11187;SDS011;5650;52.700;7.306;2024-01-15T03:09:15;12.80;;;2.13;;
11187;SDS011;5650;52.700;7.306;2024-01-15T03:11:42;8.02;;;1.90;;
11187;SDS011;5650;52.700;7.306;2024-01-15T03:14:11;11.25;;;1.80;;
11187;SDS011;5650;52.700;7.306;2024-01-15T03:16:41;7.57;;;2.22;;
11187;SDS011;5650;52.700;7.306;2024-01-15T03:19:08;10.48;;;2.45;;
11187;SDS011;5650;52.700;7.306;2024-01-15T03:21:42;12.73;;;2.22;;
11187;SDS011;5650;52.700;7.306;2024-01-15T03:24:16;10.25;;;1.90;;
11187;SDS011;5650;52.700;7.306;2024-01-15T03:26:43;14.50;;;2.47;;
11187;SDS011;5650;52.700;7.306;2024-01-15T03:29:18;17.00;;;2.85;;
11187;SDS011;5650;52.700;7.306;2024-01-15T03:31:51;10.23;;;1.65;;
11187;SDS011;5650;52.700;7.306;2024-01-15T03:34:19;15.15;;;1.88;;
11187;SDS011;5650;52.700;7.306;2024-01-15T03:36:55;10.05;;;1.80;;
11187;SDS011;5650;52.700;7.306;2024-01-15T03:39:26;8.88;;;1.98;;
11187;SDS011;5650;52.700;7.306;2024-01-15T03:41:54;9.95;;;1.70;;
11187;SDS011;5650;52.700;7.306;2024-01-15T03:44:22;10.13;;;2.03;;
11187;SDS011;5650;52.700;7.306;2024-01-15T03:46:50;10.45;;;1.83;;
11187;SDS011;5650;52.700;7.306;2024-01-15T03:49:23;7.25;;;1.20;;
11187;SDS011;5650;52.700;7.306;2024-01-15T03:51:50;9.32;;;1.30;;
11187;SDS011;5650;52.700;7.306;2024-01-15T03:54:17;6.60;;;1.63;;
11187;SDS011;5650;52.700;7.306;2024-01-15T03:56:47;8.55;;;1.20;;
11187;SDS011;5650;52.700;7.306;2024-01-15T03:59:15;8.23;;;1.48;;
11187;SDS011;5650;52.700;7.306;2024-01-15T04:01:49;8.75;;;1.77;;
11187;SDS011;5650;52.700;7.306;2024-01-15T04:04:17;6.72;;;1.73;;
11187;SDS011;5650;52.700;7.306;2024-01-15T04:06:47;5.47;;;1.30;;
11187;SDS011;5650;52.700;7.306;2024-01-15T04:09:15;6.68;;;1.27;;
11187;SDS011;5650;52.700;7.306;2024-01-15T04:11:42;7.25;;;1.17;;
11187;SDS011;5650;52.700;7.306;2024-01-15T04:14:10;8.27;;;1.35;;
11187;SDS011;5650;52.700;7.306;2024-01-15T04:16:44;5.30;;;1.50;;
11187;SDS011;5650;52.700;7.306;2024-01-15T04:19:13;4.72;;;1.50;;
11187;SDS011;5650;52.700;7.306;2024-01-15T04:21:43;7.25;;;1.42;;
11187;SDS011;5650;52.700;7.306;2024-01-15T04:24:10;7.63;;;1.40;;
11187;SDS011;5650;52.700;7.306;2024-01-15T04:26:44;8.88;;;1.60;;
11187;SDS011;5650;52.700;7.306;2024-01-15T04:29:11;6.93;;;1.27;;
11187;SDS011;5650;52.700;7.306;2024-01-15T04:31:44;7.03;;;1.30;;
11187;SDS011;5650;52.700;7.306;2024-01-15T04:34:13;4.50;;;1.20;;
11187;SDS011;5650;52.700;7.306;2024-01-15T04:36:43;10.75;;;1.55;;
11187;SDS011;5650;52.700;7.306;2024-01-15T04:39:10;7.63;;;1.33;;
11187;SDS011;5650;52.700;7.306;2024-01-15T04:41:40;9.82;;;2.20;;
11187;SDS011;5650;52.700;7.306;2024-01-15T04:44:08;11.77;;;1.60;;
11187;SDS011;5650;52.700;7.306;2024-01-15T04:46:35;7.28;;;1.65;;
11187;SDS011;5650;52.700;7.306;2024-01-15T04:49:02;7.32;;;1.55;;
11187;SDS011;5650;52.700;7.306;2024-01-15T04:51:31;8.68;;;2.00;;
11187;SDS011;5650;52.700;7.306;2024-01-15T04:53:58;9.13;;;2.15;;
11187;SDS011;5650;52.700;7.306;2024-01-15T04:56:25;7.05;;;1.60;;
11187;SDS011;5650;52.700;7.306;2024-01-15T04:58:55;6.30;;;1.45;;
11187;SDS011;5650;52.700;7.306;2024-01-15T05:01:22;7.65;;;1.42;;
11187;SDS011;5650;52.700;7.306;2024-01-15T05:03:49;5.88;;;1.45;;
11187;SDS011;5650;52.700;7.306;2024-01-15T05:06:17;5.00;;;1.35;;
11187;SDS011;5650;52.700;7.306;2024-01-15T05:08:46;8.82;;;2.13;;
11187;SDS011;5650;52.700;7.306;2024-01-15T05:11:13;7.00;;;1.80;;
11187;SDS011;5650;52.700;7.306;2024-01-15T05:13:40;7.90;;;1.65;;
11187;SDS011;5650;52.700;7.306;2024-01-15T05:16:08;6.32;;;1.60;;
11187;SDS011;5650;52.700;7.306;2024-01-15T05:18:39;11.73;;;2.00;;
11187;SDS011;5650;52.700;7.306;2024-01-15T05:21:06;9.57;;;2.08;;
11187;SDS011;5650;52.700;7.306;2024-01-15T05:23:33;7.38;;;2.10;;
11187;SDS011;5650;52.700;7.306;2024-01-15T05:26:03;10.95;;;2.10;;
11187;SDS011;5650;52.700;7.306;2024-01-15T05:28:30;4.70;;;1.50;;
11187;SDS011;5650;52.700;7.306;2024-01-15T05:30:57;9.05;;;2.47;;
11187;SDS011;5650;52.700;7.306;2024-01-15T05:33:25;11.60;;;1.67;;
11187;SDS011;5650;52.700;7.306;2024-01-15T05:35:52;8.65;;;2.00;;
11187;SDS011;5650;52.700;7.306;2024-01-15T05:38:20;14.32;;;2.65;;
11187;SDS011;5650;52.700;7.306;2024-01-15T05:40:47;9.45;;;2.13;;
11187;SDS011;5650;52.700;7.306;2024-01-15T05:43:15;12.75;;;2.65;;
11187;SDS011;5650;52.700;7.306;2024-01-15T05:45:43;11.05;;;1.95;;
11187;SDS011;5650;52.700;7.306;2024-01-15T05:48:10;13.73;;;1.80;;
11187;SDS011;5650;52.700;7.306;2024-01-15T05:50:38;8.02;;;2.03;;
11187;SDS011;5650;52.700;7.306;2024-01-15T05:53:06;13.40;;;2.22;;
11187;SDS011;5650;52.700;7.306;2024-01-15T05:55:34;13.80;;;2.60;;
11187;SDS011;5650;52.700;7.306;2024-01-15T05:58:02;9.43;;;2.10;;
11187;SDS011;5650;52.700;7.306;2024-01-15T06:00:31;12.60;;;2.15;;
11187;SDS011;5650;52.700;7.306;2024-01-15T06:03:00;17.77;;;2.85;;
11187;SDS011;5650;52.700;7.306;2024-01-15T06:05:28;11.30;;;2.38;;
11187;SDS011;5650;52.700;7.306;2024-01-15T06:07:55;13.80;;;2.95;;
11187;SDS011;5650;52.700;7.306;2024-01-15T06:10:22;11.80;;;2.58;;
11187;SDS011;5650;52.700;7.306;2024-01-15T06:12:49;12.05;;;2.65;;
11187;SDS011;5650;52.700;7.306;2024-01-15T06:15:17;11.88;;;2.63;;
11187;SDS011;5650;52.700;7.306;2024-01-15T06:17:45;10.57;;;2.05;;
11187;SDS011;5650;52.700;7.306;2024-01-15T06:20:13;12.98;;;2.38;;
11187;SDS011;5650;52.700;7.306;2024-01-15T06:22:43;7.93;;;1.98;;
11187;SDS011;5650;52.700;7.306;2024-01-15T06:25:18;14.95;;;2.63;;
11187;SDS011;5650;52.700;7.306;2024-01-15T06:27:51;16.05;;;2.63;;
11187;SDS011;5650;52.700;7.306;2024-01-15T06:30:18;11.75;;;2.40;;
11187;SDS011;5650;52.700;7.306;2024-01-15T06:32:53;19.15;;;2.65;;
11187;SDS011;5650;52.700;7.306;2024-01-15T06:35:23;15.20;;;2.25;;
11187;SDS011;5650;52.700;7.306;2024-01-15T06:37:54;15.23;;;2.45;;
11187;SDS011;5650;52.700;7.306;2024-01-15T06:40:26;7.65;;;1.70;;
11187;SDS011;5650;52.700;7.306;2024-01-15T06:42:56;12.68;;;2.08;;
11187;SDS011;5650;52.700;7.306;2024-01-15T06:45:23;8.27;;;1.92;;
11187;SDS011;5650;52.700;7.306;2024-01-15T06:47:50;8.50;;;1.77;;
11187;SDS011;5650;52.700;7.306;2024-01-15T06:50:24;15.60;;;2.00;;
11187;SDS011;5650;52.700;7.306;2024-01-15T06:52:59;8.55;;;1.83;;
11187;SDS011;5650;52.700;7.306;2024-01-15T06:55:26;11.98;;;2.03;;
11187;SDS011;5650;52.700;7.306;2024-01-15T06:57:53;8.00;;;1.55;;
11187;SDS011;5650;52.700;7.306;2024-01-15T07:00:23;9.07;;;2.03;;
11187;SDS011;5650;52.700;7.306;2024-01-15T07:02:50;11.30;;;1.80;;
11187;SDS011;5650;52.700;7.306;2024-01-15T07:05:28;11.23;;;2.00;;
11187;SDS011;5650;52.700;7.306;2024-01-15T07:07:57;12.43;;;1.95;;
11187;SDS011;5650;52.700;7.306;2024-01-15T07:10:27;9.45;;;1.88;;
11187;SDS011;5650;52.700;7.306;2024-01-15T07:12:54;12.07;;;2.47;;
11187;SDS011;5650;52.700;7.306;2024-01-15T07:15:27;8.13;;;2.20;;
11187;SDS011;5650;52.700;7.306;2024-01-15T07:17:55;11.20;;;2.42;;
11187;SDS011;5650;52.700;7.306;2024-01-15T07:20:25;7.93;;;1.80;;
11187;SDS011;5650;52.700;7.306;2024-01-15T07:22:54;9.88;;;2.58;;
11187;SDS011;5650;52.700;7.306;2024-01-15T07:25:22;9.77;;;2.50;;
11187;SDS011;5650;52.700;7.306;2024-01-15T07:27:53;12.45;;;1.88;;
11187;SDS011;5650;52.700;7.306;2024-01-15T07:30:21;6.90;;;1.90;;
11187;SDS011;5650;52.700;7.306;2024-01-15T07:32:50;7.45;;;1.65;;
11187;SDS011;5650;52.700;7.306;2024-01-15T07:35:18;7.97;;;1.50;;
11187;SDS011;5650;52.700;7.306;2024-01-15T07:37:45;7.63;;;1.50;;
11187;SDS011;5650;52.700;7.306;2024-01-15T07:40:19;9.30;;;1.90;;
11187;SDS011;5650;52.700;7.306;2024-01-15T07:42:49;10.00;;;2.13;;
11187;SDS011;5650;52.700;7.306;2024-01-15T07:45:19;6.88;;;1.67;;
11187;SDS011;5650;52.700;7.306;2024-01-15T07:47:46;9.25;;;2.05;;
11187;SDS011;5650;52.700;7.306;2024-01-15T07:50:14;10.45;;;1.70;;
11187;SDS011;5650;52.700;7.306;2024-01-15T07:52:47;7.45;;;1.83;;
11187;SDS011;5650;52.700;7.306;2024-01-15T07:55:15;13.73;;;2.10;;
11187;SDS011;5650;52.700;7.306;2024-01-15T07:57:46;4.93;;;1.50;;
11187;SDS011;5650;52.700;7.306;2024-01-15T08:00:20;3.83;;;1.20;;
11187;SDS011;5650;52.700;7.306;2024-01-15T08:02:57;7.75;;;1.52;;
11187;SDS011;5650;52.700;7.306;2024-01-15T08:05:24;5.60;;;1.38;;
11187;SDS011;5650;52.700;7.306;2024-01-15T08:07:54;4.55;;;1.48;;
11187;SDS011;5650;52.700;7.306;2024-01-15T08:10:26;12.00;;;2.00;;
11187;SDS011;5650;52.700;7.306;2024-01-15T08:12:54;6.53;;;1.85;;
11187;SDS011;5650;52.700;7.306;2024-01-15T08:15:21;5.15;;;1.67;;
11187;SDS011;5650;52.700;7.306;2024-01-15T08:17:51;8.52;;;2.10;;
11187;SDS011;5650;52.700;7.306;2024-01-15T08:20:24;7.63;;;1.95;;
11187;SDS011;5650;52.700;7.306;2024-01-15T08:22:54;7.18;;;2.25;;
11187;SDS011;5650;52.700;7.306;2024-01-15T08:25:21;6.53;;;1.95;;
11187;SDS011;5650;52.700;7.306;2024-01-15T08:27:56;7.72;;;2.72;;
11187;SDS011;5650;52.700;7.306;2024-01-15T08:30:23;9.13;;;2.20;;
11187;SDS011;5650;52.700;7.306;2024-01-15T08:32:55;9.95;;;3.17;;
11187;SDS011;5650;52.700;7.306;2024-01-15T08:35:22;11.35;;;2.30;;
11187;SDS011;5650;52.700;7.306;2024-01-15T08:37:53;8.88;;;2.90;;
11187;SDS011;5650;52.700;7.306;2024-01-15T08:40:20;7.63;;;2.55;;
11187;SDS011;5650;52.700;7.306;2024-01-15T08:42:49;11.98;;;2.50;;
11187;SDS011;5650;52.700;7.306;2024-01-15T08:45:22;6.53;;;2.20;;
11187;SDS011;5650;52.700;7.306;2024-01-15T08:47:54;14.50;;;2.78;;
11187;SDS011;5650;52.700;7.306;2024-01-15T08:50:22;7.93;;;2.33;;
11187;SDS011;5650;52.700;7.306;2024-01-15T08:52:52;7.63;;;2.40;;
11187;SDS011;5650;52.700;7.306;2024-01-15T08:55:22;9.75;;;2.22;;
11187;SDS011;5650;52.700;7.306;2024-01-15T08:58:02;6.90;;;2.28;;
11187;SDS011;5650;52.700;7.306;2024-01-15T09:00:31;8.05;;;2.03;;
11187;SDS011;5650;52.700;7.306;2024-01-15T09:02:58;8.48;;;1.77;;
11187;SDS011;5650;52.700;7.306;2024-01-15T09:05:34;10.55;;;2.28;;
11187;SDS011;5650;52.700;7.306;2024-01-15T09:08:08;7.25;;;2.00;;
11187;SDS011;5650;52.700;7.306;2024-01-15T09:10:38;10.20;;;2.25;;
11187;SDS011;5650;52.700;7.306;2024-01-15T09:13:19;10.80;;;1.98;;
11187;SDS011;5650;52.700;7.306;2024-01-15T09:15:49;11.95;;;2.60;;
11187;SDS011;5650;52.700;7.306;2024-01-15T09:18:16;11.00;;;2.30;;
11187;SDS011;5650;52.700;7.306;2024-01-15T09:20:47;10.07;;;2.40;;
11187;SDS011;5650;52.700;7.306;2024-01-15T09:26:28;6.53;;;2.08;;
11187;SDS011;5650;52.700;7.306;2024-01-15T09:28:59;8.98;;;2.78;;
11187;SDS011;5650;52.700;7.306;2024-01-15T09:31:28;9.63;;;2.55;;
11187;SDS011;5650;52.700;7.306;2024-01-15T09:33:55;10.35;;;2.42;;
11187;SDS011;5650;52.700;7.306;2024-01-15T09:36:23;13.65;;;2.20;;
11187;SDS011;5650;52.700;7.306;2024-01-15T09:38:50;9.05;;;1.95;;
11187;SDS011;5650;52.700;7.306;2024-01-15T09:41:20;7.88;;;2.10;;
11187;SDS011;5650;52.700;7.306;2024-01-15T09:43:48;11.50;;;2.63;;
11187;SDS011;5650;52.700;7.306;2024-01-15T09:46:24;12.35;;;2.75;;
11187;SDS011;5650;52.700;7.306;2024-01-15T09:48:51;9.55;;;2.65;;
11187;SDS011;5650;52.700;7.306;2024-01-15T09:51:21;14.10;;;2.53;;
11187;SDS011;5650;52.700;7.306;2024-01-15T09:53:48;9.43;;;2.67;;
11187;SDS011;5650;52.700;7.306;2024-01-15T09:56:16;13.13;;;2.28;;
11187;SDS011;5650;52.700;7.306;2024-01-15T09:58:44;8.15;;;2.47;;
11187;SDS011;5650;52.700;7.306;2024-01-15T10:01:17;13.18;;;2.63;;
11187;SDS011;5650;52.700;7.306;2024-01-15T10:03:53;10.38;;;1.63;;
11187;SDS011;5650;52.700;7.306;2024-01-15T10:06:21;13.02;;;2.55;;
11187;SDS011;5650;52.700;7.306;2024-01-15T10:08:49;6.13;;;2.10;;
11187;SDS011;5650;52.700;7.306;2024-01-15T10:11:17;6.00;;;1.88;;
11187;SDS011;5650;52.700;7.306;2024-01-15T10:13:44;9.85;;;1.83;;
11187;SDS011;5650;52.700;7.306;2024-01-15T10:16:12;10.23;;;2.53;;
11187;SDS011;5650;52.700;7.306;2024-01-15T10:18:42;8.82;;;1.92;;
11187;SDS011;5650;52.700;7.306;2024-01-15T10:21:13;8.10;;;1.88;;
11187;SDS011;5650;52.700;7.306;2024-01-15T10:23:41;6.93;;;2.20;;
11187;SDS011;5650;52.700;7.306;2024-01-15T10:26:14;8.43;;;1.75;;
11187;SDS011;5650;52.700;7.306;2024-01-15T10:28:41;11.93;;;1.80;;
11187;SDS011;5650;52.700;7.306;2024-01-15T10:31:09;11.27;;;2.30;;
11187;SDS011;5650;52.700;7.306;2024-01-15T10:33:36;12.43;;;1.70;;
11187;SDS011;5650;52.700;7.306;2024-01-15T10:36:04;5.47;;;1.67;;
11187;SDS011;5650;52.700;7.306;2024-01-15T10:38:43;6.13;;;1.92;;
11187;SDS011;5650;52.700;7.306;2024-01-15T10:41:11;12.45;;;1.92;;
11187;SDS011;5650;52.700;7.306;2024-01-15T10:43:39;8.90;;;2.55;;
11187;SDS011;5650;52.700;7.306;2024-01-15T10:46:07;8.95;;;1.80;;
11187;SDS011;5650;52.700;7.306;2024-01-15T10:48:37;4.38;;;1.77;;
11187;SDS011;5650;52.700;7.306;2024-01-15T10:51:07;10.68;;;2.45;;
11187;SDS011;5650;52.700;7.306;2024-01-15T10:53:38;8.10;;;1.58;;
11187;SDS011;5650;52.700;7.306;2024-01-15T10:56:09;8.18;;;1.95;;
11187;SDS011;5650;52.700;7.306;2024-01-15T10:58:41;4.70;;;1.67;;
11187;SDS011;5650;52.700;7.306;2024-01-15T11:01:12;6.53;;;2.10;;
11187;SDS011;5650;52.700;7.306;2024-01-15T11:03:40;10.63;;;2.38;;
11187;SDS011;5650;52.700;7.306;2024-01-15T11:06:15;12.18;;;2.17;;
11187;SDS011;5650;52.700;7.306;2024-01-15T11:08:46;9.13;;;2.17;;
11187;SDS011;5650;52.700;7.306;2024-01-15T11:11:16;6.32;;;1.67;;
11187;SDS011;5650;52.700;7.306;2024-01-15T11:16:56;7.88;;;1.73;;
11187;SDS011;5650;52.700;7.306;2024-01-15T11:19:35;3.50;;;1.30;;
11187;SDS011;5650;52.700;7.306;2024-01-15T11:22:05;7.55;;;1.70;;
11187;SDS011;5650;52.700;7.306;2024-01-15T11:24:39;8.85;;;2.03;;
11187;SDS011;5650;52.700;7.306;2024-01-15T11:27:07;4.03;;;1.10;;
11187;SDS011;5650;52.700;7.306;2024-01-15T11:29:35;6.28;;;1.50;;
11187;SDS011;5650;52.700;7.306;2024-01-15T11:32:04;5.32;;;1.30;;
11187;SDS011;5650;52.700;7.306;2024-01-15T11:40:36;5.43;;;1.30;;
11187;SDS011;5650;52.700;7.306;2024-01-15T11:43:07;7.97;;;1.52;;
11187;SDS011;5650;52.700;7.306;2024-01-15T11:45:35;8.18;;;1.65;;
11187;SDS011;5650;52.700;7.306;2024-01-15T11:48:10;7.00;;;1.58;;
11187;SDS011;5650;52.700;7.306;2024-01-15T11:50:42;6.53;;;1.55;;
11187;SDS011;5650;52.700;7.306;2024-01-15T11:53:17;7.75;;;1.48;;
11187;SDS011;5650;52.700;7.306;2024-01-15T11:55:49;9.32;;;1.50;;
11187;SDS011;5650;52.700;7.306;2024-01-15T11:58:19;5.10;;;1.10;;
11187;SDS011;5650;52.700;7.306;2024-01-15T12:00:47;3.65;;;1.05;;
11187;SDS011;5650;52.700;7.306;2024-01-15T12:03:16;7.72;;;1.92;;
11187;SDS011;5650;52.700;7.306;2024-01-15T12:05:43;6.85;;;1.65;;
11187;SDS011;5650;52.700;7.306;2024-01-15T12:08:10;8.93;;;1.60;;
11187;SDS011;5650;52.700;7.306;2024-01-15T12:10:38;6.05;;;1.65;;
11187;SDS011;5650;52.700;7.306;2024-01-15T12:13:09;10.10;;;2.10;;
11187;SDS011;5650;52.700;7.306;2024-01-15T12:15:38;6.93;;;1.63;;
11187;SDS011;5650;52.700;7.306;2024-01-15T12:18:07;8.48;;;1.80;;
11187;SDS011;5650;52.700;7.306;2024-01-15T12:20:34;8.10;;;1.88;;
11187;SDS011;5650;52.700;7.306;2024-01-15T12:23:02;4.72;;;1.23;;
11187;SDS011;5650;52.700;7.306;2024-01-15T12:25:32;6.80;;;1.30;;
11187;SDS011;5650;52.700;7.306;2024-01-15T12:28:00;7.88;;;1.48;;
11187;SDS011;5650;52.700;7.306;2024-01-15T12:30:29;7.47;;;1.48;;
11187;SDS011;5650;52.700;7.306;2024-01-15T12:32:57;10.05;;;1.40;;
11187;SDS011;5650;52.700;7.306;2024-01-15T12:35:27;6.22;;;1.17;;
11187;SDS011;5650;52.700;7.306;2024-01-15T12:37:55;3.08;;;1.17;;
11187;SDS011;5650;52.700;7.306;2024-01-15T12:40:22;6.00;;;1.38;;
11187;SDS011;5650;52.700;7.306;2024-01-15T12:42:50;4.32;;;1.20;;
11187;SDS011;5650;52.700;7.306;2024-01-15T12:45:17;2.72;;;0.90;;
11187;SDS011;5650;52.700;7.306;2024-01-15T12:47:46;6.78;;;1.40;;
11187;SDS011;5650;52.700;7.306;2024-01-15T12:50:15;3.63;;;1.02;;
11187;SDS011;5650;52.700;7.306;2024-01-15T12:52:42;3.25;;;1.00;;
11187;SDS011;5650;52.700;7.306;2024-01-15T12:55:10;3.97;;;0.63;;
11187;SDS011;5650;52.700;7.306;2024-01-15T12:57:37;2.58;;;0.90;;
11187;SDS011;5650;52.700;7.306;2024-01-15T13:00:05;4.03;;;0.90;;
11187;SDS011;5650;52.700;7.306;2024-01-15T13:02:37;2.47;;;0.77;;
11187;SDS011;5650;52.700;7.306;2024-01-15T13:05:08;2.05;;;0.70;;
11187;SDS011;5650;52.700;7.306;2024-01-15T13:07:36;1.25;;;0.55;;
11187;SDS011;5650;52.700;7.306;2024-01-15T13:10:04;0.85;;;0.70;;
11187;SDS011;5650;52.700;7.306;2024-01-15T13:12:32;3.03;;;0.80;;
11187;SDS011;5650;52.700;7.306;2024-01-15T13:14:59;2.10;;;0.60;;
11187;SDS011;5650;52.700;7.306;2024-01-15T13:17:28;3.85;;;0.90;;
11187;SDS011;5650;52.700;7.306;2024-01-15T13:19:56;1.85;;;0.73;;
11187;SDS011;5650;52.700;7.306;2024-01-15T13:22:25;2.83;;;1.73;;
11187;SDS011;5650;52.700;7.306;2024-01-15T13:24:57;3.10;;;2.35;;
11187;SDS011;5650;52.700;7.306;2024-01-15T13:27:24;1.83;;;1.02;;
11187;SDS011;5650;52.700;7.306;2024-01-15T13:29:51;0.73;;;0.60;;
11187;SDS011;5650;52.700;7.306;2024-01-15T13:32:24;2.28;;;0.85;;
11187;SDS011;5650;52.700;7.306;2024-01-15T13:34:52;3.33;;;0.70;;
11187;SDS011;5650;52.700;7.306;2024-01-15T13:37:20;1.42;;;0.75;;
11187;SDS011;5650;52.700;7.306;2024-01-15T13:39:51;1.20;;;0.60;;
11187;SDS011;5650;52.700;7.306;2024-01-15T13:42:18;2.35;;;1.00;;
11187;SDS011;5650;52.700;7.306;2024-01-15T13:44:47;2.80;;;1.15;;
11187;SDS011;5650;52.700;7.306;2024-01-15T13:47:14;3.15;;;0.90;;
11187;SDS011;5650;52.700;7.306;2024-01-15T13:49:41;1.73;;;0.90;;
11187;SDS011;5650;52.700;7.306;2024-01-15T13:52:09;3.17;;;1.35;;
11187;SDS011;5650;52.700;7.306;2024-01-15T13:54:36;4.88;;;1.23;;
11187;SDS011;5650;52.700;7.306;2024-01-15T13:57:05;2.38;;;0.93;;
11187;SDS011;5650;52.700;7.306;2024-01-15T13:59:32;5.00;;;1.50;;
11187;SDS011;5650;52.700;7.306;2024-01-15T14:01:59;3.28;;;0.93;;
11187;SDS011;5650;52.700;7.306;2024-01-15T14:04:27;3.53;;;1.50;;
11187;SDS011;5650;52.700;7.306;2024-01-15T14:06:56;5.10;;;1.50;;
11187;SDS011;5650;52.700;7.306;2024-01-15T14:09:23;6.45;;;1.60;;
11187;SDS011;5650;52.700;7.306;2024-01-15T14:11:50;5.35;;;1.55;;
11187;SDS011;5650;52.700;7.306;2024-01-15T14:14:20;9.27;;;1.92;;
11187;SDS011;5650;52.700;7.306;2024-01-15T14:16:47;7.18;;;1.63;;
11187;SDS011;5650;52.700;7.306;2024-01-15T14:19:14;6.78;;;1.88;;
11187;SDS011;5650;52.700;7.306;2024-01-15T14:21:41;9.63;;;1.92;;
11187;SDS011;5650;52.700;7.306;2024-01-15T14:24:08;9.30;;;2.58;;
11187;SDS011;5650;52.700;7.306;2024-01-15T14:26:35;3.60;;;1.40;;
11187;SDS011;5650;52.700;7.306;2024-01-15T14:29:03;8.00;;;2.10;;
11187;SDS011;5650;52.700;7.306;2024-01-15T14:31:32;5.00;;;1.35;;
11187;SDS011;5650;52.700;7.306;2024-01-15T14:33:59;8.85;;;1.85;;
11187;SDS011;5650;52.700;7.306;2024-01-15T14:36:28;7.35;;;1.60;;
11187;SDS011;5650;52.700;7.306;2024-01-15T14:38:55;5.55;;;1.70;;
11187;SDS011;5650;52.700;7.306;2024-01-15T14:41:22;11.35;;;2.45;;
11187;SDS011;5650;52.700;7.306;2024-01-15T14:43:49;8.55;;;2.60;;
11187;SDS011;5650;52.700;7.306;2024-01-15T14:46:17;9.70;;;2.75;;
11187;SDS011;5650;52.700;7.306;2024-01-15T14:48:45;7.50;;;2.30;;
11187;SDS011;5650;52.700;7.306;2024-01-15T14:51:13;9.05;;;2.70;;
11187;SDS011;5650;52.700;7.306;2024-01-15T14:53:40;7.80;;;2.30;;
11187;SDS011;5650;52.700;7.306;2024-01-15T14:56:08;7.10;;;1.90;;
11187;SDS011;5650;52.700;7.306;2024-01-15T14:58:35;5.68;;;2.08;;
11187;SDS011;5650;52.700;7.306;2024-01-15T15:01:03;4.90;;;1.60;;
11187;SDS011;5650;52.700;7.306;2024-01-15T15:03:30;8.40;;;2.15;;
11187;SDS011;5650;52.700;7.306;2024-01-15T15:05:59;10.82;;;4.43;;
11187;SDS011;5650;52.700;7.306;2024-01-15T15:08:26;11.18;;;3.38;;
11187;SDS011;5650;52.700;7.306;2024-01-15T15:10:53;13.57;;;3.63;;
11187;SDS011;5650;52.700;7.306;2024-01-15T15:13:21;5.82;;;1.20;;
11187;SDS011;5650;52.700;7.306;2024-01-15T15:15:50;6.38;;;2.22;;
11187;SDS011;5650;52.700;7.306;2024-01-15T15:18:20;11.52;;;2.30;;